sensor_id;sensor_type;location;lat;lon;timestamp;P1;durP1;ratioP1;P2;durP2;ratioP2
1140;SDS011;559;48.628;8.924;2023-04-25T00:01:40;145.32;;;138.43;;
1140;SDS011;559;48.628;8.924;2023-04-25T00:04:07;139.57;;;132.98;;
1140;SDS011;559;48.628;8.924;2023-04-25T00:06:33;138.57;;;131.77;;
1140;SDS011;559;48.628;8.924;2023-04-25T00:09:01;144.52;;;137.73;;
1140;SDS011;559;48.628;8.924;2023-04-25T00:11:29;142.20;;;135.40;;
1140;SDS011;559;48.628;8.924;2023-04-25T00:13:56;139.90;;;133.40;;
1140;SDS011;559;48.628;8.924;2023-04-25T00:16:24;143.85;;;137.20;;
1140;SDS011;559;48.628;8.924;2023-04-25T00:18:51;138.55;;;131.90;;
1140;SDS011;559;48.628;8.924;2023-04-25T00:21:18;136.30;;;129.95;;
1140;SDS011;559;48.628;8.924;2023-04-25T00:23:45;135.25;;;128.85;;
1140;SDS011;559;48.628;8.924;2023-04-25T00:26:12;138.13;;;131.23;;
1140;SDS011;559;48.628;8.924;2023-04-25T00:28:40;134.35;;;127.88;;
1140;SDS011;559;48.628;8.924;2023-04-25T00:31:07;139.10;;;132.43;;
1140;SDS011;559;48.628;8.924;2023-04-25T00:33:33;137.13;;;130.68;;
1140;SDS011;559;48.628;8.924;2023-04-25T00:36:00;141.38;;;134.80;;
1140;SDS011;559;48.628;8.924;2023-04-25T00:38:26;143.93;;;137.32;;
1140;SDS011;559;48.628;8.924;2023-04-25T00:40:52;132.23;;;125.82;;
1140;SDS011;559;48.628;8.924;2023-04-25T00:43:20;135.85;;;129.23;;
1140;SDS011;559;48.628;8.924;2023-04-25T00:45:48;140.07;;;133.32;;
1140;SDS011;559;48.628;8.924;2023-04-25T00:48:15;140.90;;;134.25;;
1140;SDS011;559;48.628;8.924;2023-04-25T00:50:43;138.70;;;132.00;;
1140;SDS011;559;48.628;8.924;2023-04-25T00:53:17;138.52;;;131.75;;
1140;SDS011;559;48.628;8.924;2023-04-25T00:55:43;138.60;;;131.93;;
1140;SDS011;559;48.628;8.924;2023-04-25T00:58:10;137.65;;;131.05;;
1140;SDS011;559;48.628;8.924;2023-04-25T01:00:36;129.43;;;123.20;;
1140;SDS011;559;48.628;8.924;2023-04-25T01:03:04;140.05;;;133.48;;
1140;SDS011;559;48.628;8.924;2023-04-25T01:05:31;151.75;;;144.75;;
1140;SDS011;559;48.628;8.924;2023-04-25T01:07:57;172.15;;;164.52;;
1140;SDS011;559;48.628;8.924;2023-04-25T01:10:24;163.90;;;156.20;;
1140;SDS011;559;48.628;8.924;2023-04-25T01:12:51;155.15;;;147.60;;
1140;SDS011;559;48.628;8.924;2023-04-25T01:15:17;150.70;;;143.50;;
1140;SDS011;559;48.628;8.924;2023-04-25T01:17:44;138.50;;;131.68;;
1140;SDS011;559;48.628;8.924;2023-04-25T01:20:13;138.05;;;131.07;;
1140;SDS011;559;48.628;8.924;2023-04-25T01:22:41;134.77;;;128.18;;
1140;SDS011;559;48.628;8.924;2023-04-25T01:25:08;141.70;;;134.85;;
1140;SDS011;559;48.628;8.924;2023-04-25T01:27:35;137.18;;;130.57;;
1140;SDS011;559;48.628;8.924;2023-04-25T01:30:02;145.02;;;138.07;;
1140;SDS011;559;48.628;8.924;2023-04-25T01:32:29;136.68;;;130.05;;
1140;SDS011;559;48.628;8.924;2023-04-25T01:35:03;139.45;;;132.80;;
1140;SDS011;559;48.628;8.924;2023-04-25T01:37:34;124.60;;;118.35;;
1140;SDS011;559;48.628;8.924;2023-04-25T01:40:02;121.60;;;115.40;;
1140;SDS011;559;48.628;8.924;2023-04-25T01:42:30;122.93;;;116.57;;
1140;SDS011;559;48.628;8.924;2023-04-25T01:44:57;127.03;;;120.93;;
1140;SDS011;559;48.628;8.924;2023-04-25T01:47:23;117.20;;;111.47;;
1140;SDS011;559;48.628;8.924;2023-04-25T01:49:50;115.07;;;109.47;;
1140;SDS011;559;48.628;8.924;2023-04-25T01:52:16;112.45;;;107.05;;
1140;SDS011;559;48.628;8.924;2023-04-25T01:54:43;112.88;;;107.50;;
1140;SDS011;559;48.628;8.924;2023-04-25T01:57:11;111.90;;;106.60;;
1140;SDS011;559;48.628;8.924;2023-04-25T01:59:38;107.25;;;102.05;;
1140;SDS011;559;48.628;8.924;2023-04-25T02:02:04;109.13;;;103.65;;
1140;SDS011;559;48.628;8.924;2023-04-25T02:04:31;110.97;;;105.70;;
1140;SDS011;559;48.628;8.924;2023-04-25T02:06:58;111.07;;;105.78;;
1140;SDS011;559;48.628;8.924;2023-04-25T02:09:24;117.85;;;112.28;;
1140;SDS011;559;48.628;8.924;2023-04-25T02:11:51;124.55;;;118.97;;
1140;SDS011;559;48.628;8.924;2023-04-25T02:14:19;114.28;;;108.90;;
1140;SDS011;559;48.628;8.924;2023-04-25T02:16:46;112.57;;;107.28;;
1140;SDS011;559;48.628;8.924;2023-04-25T02:19:13;123.60;;;117.85;;
1140;SDS011;559;48.628;8.924;2023-04-25T02:21:41;127.47;;;121.70;;
1140;SDS011;559;48.628;8.924;2023-04-25T02:24:07;119.13;;;113.53;;
1140;SDS011;559;48.628;8.924;2023-04-25T02:26:34;118.10;;;112.60;;
1140;SDS011;559;48.628;8.924;2023-04-25T02:29:01;118.30;;;113.00;;
1140;SDS011;559;48.628;8.924;2023-04-25T02:31:28;114.80;;;109.45;;
1140;SDS011;559;48.628;8.924;2023-04-25T02:33:55;113.78;;;108.38;;
1140;SDS011;559;48.628;8.924;2023-04-25T02:36:22;120.55;;;115.00;;
1140;SDS011;559;48.628;8.924;2023-04-25T02:38:49;131.50;;;125.38;;
1140;SDS011;559;48.628;8.924;2023-04-25T02:41:15;130.20;;;124.10;;
1140;SDS011;559;48.628;8.924;2023-04-25T02:43:42;129.93;;;123.65;;
1140;SDS011;559;48.628;8.924;2023-04-25T02:46:08;137.38;;;130.82;;
1140;SDS011;559;48.628;8.924;2023-04-25T02:48:36;131.98;;;125.75;;
1140;SDS011;559;48.628;8.924;2023-04-25T02:51:03;133.80;;;127.40;;
1140;SDS011;559;48.628;8.924;2023-04-25T02:53:29;137.52;;;130.95;;
1140;SDS011;559;48.628;8.924;2023-04-25T02:55:56;135.98;;;129.18;;
1140;SDS011;559;48.628;8.924;2023-04-25T02:58:24;129.85;;;123.25;;
1140;SDS011;559;48.628;8.924;2023-04-25T03:00:50;131.63;;;124.93;;
1140;SDS011;559;48.628;8.924;2023-04-25T03:03:17;126.05;;;119.75;;
1140;SDS011;559;48.628;8.924;2023-04-25T03:05:47;121.28;;;114.95;;
1140;SDS011;559;48.628;8.924;2023-04-25T03:08:15;122.72;;;116.63;;
1140;SDS011;559;48.628;8.924;2023-04-25T03:10:42;117.15;;;111.15;;
1140;SDS011;559;48.628;8.924;2023-04-25T03:13:08;122.60;;;116.43;;
1140;SDS011;559;48.628;8.924;2023-04-25T03:15:35;114.93;;;109.10;;
1140;SDS011;559;48.628;8.924;2023-04-25T03:18:02;116.95;;;110.75;;
1140;SDS011;559;48.628;8.924;2023-04-25T03:20:29;112.70;;;107.00;;
1140;SDS011;559;48.628;8.924;2023-04-25T03:22:57;117.13;;;111.10;;
1140;SDS011;559;48.628;8.924;2023-04-25T03:25:23;119.00;;;112.90;;
1140;SDS011;559;48.628;8.924;2023-04-25T03:27:50;129.57;;;123.07;;
1140;SDS011;559;48.628;8.924;2023-04-25T03:30:17;134.40;;;127.55;;
1140;SDS011;559;48.628;8.924;2023-04-25T03:32:43;132.00;;;125.30;;
1140;SDS011;559;48.628;8.924;2023-04-25T03:35:10;121.20;;;114.55;;
1140;SDS011;559;48.628;8.924;2023-04-25T03:37:36;128.43;;;121.72;;
1140;SDS011;559;48.628;8.924;2023-04-25T03:40:05;131.80;;;125.22;;
1140;SDS011;559;48.628;8.924;2023-04-25T03:42:32;131.27;;;124.60;;
1140;SDS011;559;48.628;8.924;2023-04-25T03:44:59;131.60;;;124.85;;
1140;SDS011;559;48.628;8.924;2023-04-25T03:47:25;140.93;;;134.00;;
1140;SDS011;559;48.628;8.924;2023-04-25T03:49:52;132.98;;;126.25;;
1140;SDS011;559;48.628;8.924;2023-04-25T03:52:18;136.05;;;129.15;;
1140;SDS011;559;48.628;8.924;2023-04-25T03:54:45;137.45;;;130.65;;
1140;SDS011;559;48.628;8.924;2023-04-25T03:57:13;134.68;;;127.97;;
1140;SDS011;559;48.628;8.924;2023-04-25T03:59:39;130.68;;;123.88;;
1140;SDS011;559;48.628;8.924;2023-04-25T04:02:06;128.98;;;122.50;;
1140;SDS011;559;48.628;8.924;2023-04-25T04:04:32;137.00;;;130.25;;
1140;SDS011;559;48.628;8.924;2023-04-25T04:06:58;137.52;;;130.68;;
1140;SDS011;559;48.628;8.924;2023-04-25T04:09:25;141.98;;;134.98;;
1140;SDS011;559;48.628;8.924;2023-04-25T04:11:52;135.18;;;128.07;;
1140;SDS011;559;48.628;8.924;2023-04-25T04:14:20;128.88;;;122.38;;
1140;SDS011;559;48.628;8.924;2023-04-25T04:16:46;134.98;;;128.18;;
1140;SDS011;559;48.628;8.924;2023-04-25T04:19:13;142.73;;;135.93;;
1140;SDS011;559;48.628;8.924;2023-04-25T04:21:40;152.40;;;144.77;;
1140;SDS011;559;48.628;8.924;2023-04-25T04:24:06;137.93;;;130.73;;
1140;SDS011;559;48.628;8.924;2023-04-25T04:26:33;145.70;;;138.43;;
1140;SDS011;559;48.628;8.924;2023-04-25T04:29:00;141.77;;;134.05;;
1140;SDS011;559;48.628;8.924;2023-04-25T04:31:28;141.95;;;134.65;;
1140;SDS011;559;48.628;8.924;2023-04-25T04:33:55;139.63;;;132.05;;
1140;SDS011;559;48.628;8.924;2023-04-25T04:36:22;141.85;;;134.68;;
1140;SDS011;559;48.628;8.924;2023-04-25T04:38:49;137.45;;;130.13;;
1140;SDS011;559;48.628;8.924;2023-04-25T04:41:16;143.32;;;136.07;;
1140;SDS011;559;48.628;8.924;2023-04-25T04:43:42;146.23;;;138.77;;
1140;SDS011;559;48.628;8.924;2023-04-25T04:46:09;144.90;;;137.43;;
1140;SDS011;559;48.628;8.924;2023-04-25T04:48:39;134.10;;;126.90;;
1140;SDS011;559;48.628;8.924;2023-04-25T04:51:05;137.40;;;130.00;;
1140;SDS011;559;48.628;8.924;2023-04-25T04:53:32;138.23;;;130.95;;
1140;SDS011;559;48.628;8.924;2023-04-25T04:55:58;136.55;;;129.25;;
1140;SDS011;559;48.628;8.924;2023-04-25T04:58:25;141.57;;;133.90;;
1140;SDS011;559;48.628;8.924;2023-04-25T05:00:54;144.18;;;136.80;;
1140;SDS011;559;48.628;8.924;2023-04-25T05:03:21;142.75;;;135.07;;
1140;SDS011;559;48.628;8.924;2023-04-25T05:05:48;151.60;;;143.80;;
1140;SDS011;559;48.628;8.924;2023-04-25T05:08:15;153.00;;;144.57;;
1140;SDS011;559;48.628;8.924;2023-04-25T05:10:41;141.15;;;133.15;;
1140;SDS011;559;48.628;8.924;2023-04-25T05:13:08;136.75;;;129.25;;
1140;SDS011;559;48.628;8.924;2023-04-25T05:15:34;132.65;;;125.43;;
1140;SDS011;559;48.628;8.924;2023-04-25T05:18:01;142.07;;;134.48;;
1140;SDS011;559;48.628;8.924;2023-04-25T05:20:28;147.75;;;139.95;;
1140;SDS011;559;48.628;8.924;2023-04-25T05:22:56;142.85;;;135.45;;
1140;SDS011;559;48.628;8.924;2023-04-25T05:25:22;137.68;;;130.18;;
1140;SDS011;559;48.628;8.924;2023-04-25T05:27:48;131.45;;;123.97;;
1140;SDS011;559;48.628;8.924;2023-04-25T05:30:16;136.32;;;128.98;;
1140;SDS011;559;48.628;8.924;2023-04-25T05:32:42;137.88;;;130.50;;
1140;SDS011;559;48.628;8.924;2023-04-25T05:35:09;127.95;;;120.95;;
1140;SDS011;559;48.628;8.924;2023-04-25T05:37:35;137.75;;;130.45;;
1140;SDS011;559;48.628;8.924;2023-04-25T05:40:04;151.23;;;143.23;;
1140;SDS011;559;48.628;8.924;2023-04-25T05:42:32;147.30;;;139.43;;
1140;SDS011;559;48.628;8.924;2023-04-25T05:44:58;156.73;;;148.05;;
1140;SDS011;559;48.628;8.924;2023-04-25T05:47:25;154.63;;;146.38;;
1140;SDS011;559;48.628;8.924;2023-04-25T05:49:52;158.20;;;149.70;;
1140;SDS011;559;48.628;8.924;2023-04-25T05:52:18;147.10;;;138.90;;
1140;SDS011;559;48.628;8.924;2023-04-25T05:54:45;141.95;;;133.95;;
1140;SDS011;559;48.628;8.924;2023-04-25T05:57:19;156.07;;;147.32;;
1140;SDS011;559;48.628;8.924;2023-04-25T05:59:46;137.52;;;129.73;;
1140;SDS011;559;48.628;8.924;2023-04-25T06:02:13;140.18;;;132.57;;
1140;SDS011;559;48.628;8.924;2023-04-25T06:04:39;145.15;;;136.77;;
1140;SDS011;559;48.628;8.924;2023-04-25T06:07:06;145.18;;;136.98;;
1140;SDS011;559;48.628;8.924;2023-04-25T06:09:33;135.93;;;128.23;;
1140;SDS011;559;48.628;8.924;2023-04-25T06:12:00;134.65;;;126.55;;
1140;SDS011;559;48.628;8.924;2023-04-25T06:14:28;124.40;;;117.07;;
1140;SDS011;559;48.628;8.924;2023-04-25T06:16:55;119.20;;;112.25;;
1140;SDS011;559;48.628;8.924;2023-04-25T06:19:22;119.55;;;112.65;;
1140;SDS011;559;48.628;8.924;2023-04-25T06:21:48;117.22;;;110.53;;
1140;SDS011;559;48.628;8.924;2023-04-25T06:24:14;107.70;;;101.65;;
1140;SDS011;559;48.628;8.924;2023-04-25T06:26:41;108.68;;;102.78;;
1140;SDS011;559;48.628;8.924;2023-04-25T06:29:07;112.53;;;106.43;;
1140;SDS011;559;48.628;8.924;2023-04-25T06:31:36;104.15;;;98.53;;
1140;SDS011;559;48.628;8.924;2023-04-25T06:34:02;104.28;;;98.55;;
1140;SDS011;559;48.628;8.924;2023-04-25T06:36:29;105.95;;;99.95;;
1140;SDS011;559;48.628;8.924;2023-04-25T06:38:55;101.38;;;96.07;;
1140;SDS011;559;48.628;8.924;2023-04-25T06:41:22;104.45;;;98.95;;
1140;SDS011;559;48.628;8.924;2023-04-25T06:43:48;106.82;;;101.22;;
1140;SDS011;559;48.628;8.924;2023-04-25T06:46:15;111.53;;;105.82;;
1140;SDS011;559;48.628;8.924;2023-04-25T06:48:43;117.88;;;111.40;;
1140;SDS011;559;48.628;8.924;2023-04-25T06:51:09;115.18;;;108.88;;
1140;SDS011;559;48.628;8.924;2023-04-25T06:53:36;117.78;;;111.43;;
1140;SDS011;559;48.628;8.924;2023-04-25T06:56:02;118.55;;;112.15;;
1140;SDS011;559;48.628;8.924;2023-04-25T06:58:29;128.32;;;121.43;;
1140;SDS011;559;48.628;8.924;2023-04-25T07:00:56;126.70;;;120.10;;
1140;SDS011;559;48.628;8.924;2023-04-25T07:03:22;126.75;;;119.95;;
1140;SDS011;559;48.628;8.924;2023-04-25T07:05:50;140.48;;;133.27;;
1140;SDS011;559;48.628;8.924;2023-04-25T07:08:16;136.63;;;129.32;;
1140;SDS011;559;48.628;8.924;2023-04-25T07:10:43;145.40;;;137.70;;
1140;SDS011;559;48.628;8.924;2023-04-25T07:13:11;135.50;;;128.02;;
1140;SDS011;559;48.628;8.924;2023-04-25T07:15:37;140.80;;;133.32;;
1140;SDS011;559;48.628;8.924;2023-04-25T07:18:04;138.32;;;130.90;;
1140;SDS011;559;48.628;8.924;2023-04-25T07:20:30;135.82;;;128.32;;
1140;SDS011;559;48.628;8.924;2023-04-25T07:22:59;128.82;;;121.63;;
1140;SDS011;559;48.628;8.924;2023-04-25T07:25:25;133.45;;;126.38;;
1140;SDS011;559;48.628;8.924;2023-04-25T07:27:52;134.38;;;127.13;;
1140;SDS011;559;48.628;8.924;2023-04-25T07:30:18;133.55;;;126.47;;
1140;SDS011;559;48.628;8.924;2023-04-25T07:32:45;135.25;;;128.02;;
1140;SDS011;559;48.628;8.924;2023-04-25T07:35:11;137.80;;;130.20;;
1140;SDS011;559;48.628;8.924;2023-04-25T07:37:37;141.65;;;134.27;;
1140;SDS011;559;48.628;8.924;2023-04-25T07:40:06;134.55;;;127.32;;
1140;SDS011;559;48.628;8.924;2023-04-25T07:42:34;150.68;;;142.75;;
1140;SDS011;559;48.628;8.924;2023-04-25T07:45:01;153.95;;;145.55;;
1140;SDS011;559;48.628;8.924;2023-04-25T07:47:28;146.90;;;138.80;;
1140;SDS011;559;48.628;8.924;2023-04-25T07:49:54;155.13;;;146.43;;
1140;SDS011;559;48.628;8.924;2023-04-25T07:52:22;137.50;;;129.95;;
1140;SDS011;559;48.628;8.924;2023-04-25T07:54:49;117.32;;;110.55;;
1140;SDS011;559;48.628;8.924;2023-04-25T07:57:17;124.53;;;117.63;;
1140;SDS011;559;48.628;8.924;2023-04-25T07:59:44;128.20;;;121.25;;
1140;SDS011;559;48.628;8.924;2023-04-25T08:02:11;133.40;;;126.25;;
1140;SDS011;559;48.628;8.924;2023-04-25T08:04:37;131.00;;;124.13;;
1140;SDS011;559;48.628;8.924;2023-04-25T08:07:04;127.97;;;121.07;;
1140;SDS011;559;48.628;8.924;2023-04-25T08:09:30;143.30;;;135.60;;
1140;SDS011;559;48.628;8.924;2023-04-25T08:11:59;141.73;;;134.13;;
1140;SDS011;559;48.628;8.924;2023-04-25T08:14:28;138.98;;;131.65;;
1140;SDS011;559;48.628;8.924;2023-04-25T08:17:00;120.85;;;114.07;;
1140;SDS011;559;48.628;8.924;2023-04-25T08:19:26;129.45;;;122.60;;
1140;SDS011;559;48.628;8.924;2023-04-25T08:21:53;120.15;;;113.65;;
1140;SDS011;559;48.628;8.924;2023-04-25T08:24:20;132.82;;;125.93;;
1140;SDS011;559;48.628;8.924;2023-04-25T08:26:47;127.95;;;121.10;;
1140;SDS011;559;48.628;8.924;2023-04-25T08:29:13;144.60;;;137.13;;
1140;SDS011;559;48.628;8.924;2023-04-25T08:31:41;140.73;;;133.38;;
1140;SDS011;559;48.628;8.924;2023-04-25T08:34:08;129.50;;;122.50;;
1140;SDS011;559;48.628;8.924;2023-04-25T08:36:34;132.85;;;125.70;;
1140;SDS011;559;48.628;8.924;2023-04-25T08:39:01;195.63;;;180.48;;
1140;SDS011;559;48.628;8.924;2023-04-25T08:41:27;149.23;;;139.68;;
1140;SDS011;559;48.628;8.924;2023-04-25T08:43:54;141.68;;;133.73;;
1140;SDS011;559;48.628;8.924;2023-04-25T08:46:22;127.93;;;121.05;;
1140;SDS011;559;48.628;8.924;2023-04-25T08:48:50;140.07;;;132.52;;
1140;SDS011;559;48.628;8.924;2023-04-25T08:51:21;132.82;;;125.65;;
1140;SDS011;559;48.628;8.924;2023-04-25T08:53:50;137.48;;;130.15;;
1140;SDS011;559;48.628;8.924;2023-04-25T08:56:17;133.90;;;126.72;;
1140;SDS011;559;48.628;8.924;2023-04-25T08:58:46;136.45;;;128.80;;
1140;SDS011;559;48.628;8.924;2023-04-25T09:01:14;130.60;;;123.70;;
1140;SDS011;559;48.628;8.924;2023-04-25T09:03:40;122.40;;;115.60;;
1140;SDS011;559;48.628;8.924;2023-04-25T09:06:09;121.53;;;115.13;;
1140;SDS011;559;48.628;8.924;2023-04-25T09:08:37;122.70;;;116.10;;
1140;SDS011;559;48.628;8.924;2023-04-25T09:11:05;127.45;;;120.75;;
1140;SDS011;559;48.628;8.924;2023-04-25T09:13:31;124.63;;;118.07;;
1140;SDS011;559;48.628;8.924;2023-04-25T09:15:58;126.45;;;119.95;;
1140;SDS011;559;48.628;8.924;2023-04-25T09:18:25;131.10;;;124.40;;
1140;SDS011;559;48.628;8.924;2023-04-25T09:20:53;129.02;;;122.47;;
1140;SDS011;559;48.628;8.924;2023-04-25T09:23:23;134.13;;;127.53;;
1140;SDS011;559;48.628;8.924;2023-04-25T09:25:51;135.85;;;129.15;;
1140;SDS011;559;48.628;8.924;2023-04-25T09:28:22;136.73;;;129.93;;
1140;SDS011;559;48.628;8.924;2023-04-25T09:30:53;130.90;;;124.32;;
1140;SDS011;559;48.628;8.924;2023-04-25T09:33:21;131.05;;;124.45;;
1140;SDS011;559;48.628;8.924;2023-04-25T09:35:53;134.18;;;127.55;;
1140;SDS011;559;48.628;8.924;2023-04-25T09:38:21;141.80;;;134.75;;
1140;SDS011;559;48.628;8.924;2023-04-25T09:40:51;128.65;;;122.05;;
1140;SDS011;559;48.628;8.924;2023-04-25T09:43:18;145.23;;;138.18;;
1140;SDS011;559;48.628;8.924;2023-04-25T09:45:46;132.68;;;125.97;;
1140;SDS011;559;48.628;8.924;2023-04-25T09:48:16;139.05;;;132.00;;
1140;SDS011;559;48.628;8.924;2023-04-25T09:50:44;140.18;;;133.00;;
1140;SDS011;559;48.628;8.924;2023-04-25T09:53:11;144.40;;;137.10;;
1140;SDS011;559;48.628;8.924;2023-04-25T09:55:37;141.85;;;134.50;;
1140;SDS011;559;48.628;8.924;2023-04-25T09:58:05;135.38;;;128.38;;
1140;SDS011;559;48.628;8.924;2023-04-25T10:00:32;131.73;;;124.88;;
1140;SDS011;559;48.628;8.924;2023-04-25T10:03:00;131.30;;;124.50;;
1140;SDS011;559;48.628;8.924;2023-04-25T10:05:28;129.55;;;122.95;;
1140;SDS011;559;48.628;8.924;2023-04-25T10:07:56;133.50;;;125.90;;
1140;SDS011;559;48.628;8.924;2023-04-25T10:10:23;133.27;;;126.38;;
1140;SDS011;559;48.628;8.924;2023-04-25T10:12:52;118.25;;;111.65;;
1140;SDS011;559;48.628;8.924;2023-04-25T10:15:20;123.53;;;116.90;;
1140;SDS011;559;48.628;8.924;2023-04-25T10:17:47;117.15;;;110.65;;
1140;SDS011;559;48.628;8.924;2023-04-25T10:20:15;118.90;;;112.40;;
1140;SDS011;559;48.628;8.924;2023-04-25T10:22:44;126.70;;;120.10;;
1140;SDS011;559;48.628;8.924;2023-04-25T10:25:11;125.43;;;118.72;;
1140;SDS011;559;48.628;8.924;2023-04-25T10:27:38;127.25;;;120.55;;
1140;SDS011;559;48.628;8.924;2023-04-25T10:30:06;119.55;;;112.60;;
1140;SDS011;559;48.628;8.924;2023-04-25T10:32:37;123.25;;;116.85;;
1140;SDS011;559;48.628;8.924;2023-04-25T10:35:10;110.65;;;104.65;;
1140;SDS011;559;48.628;8.924;2023-04-25T10:37:37;118.95;;;112.75;;
1140;SDS011;559;48.628;8.924;2023-04-25T10:40:08;109.88;;;104.00;;
1140;SDS011;559;48.628;8.924;2023-04-25T10:42:35;105.95;;;100.25;;
1140;SDS011;559;48.628;8.924;2023-04-25T10:45:04;113.65;;;107.65;;
1140;SDS011;559;48.628;8.924;2023-04-25T10:47:34;106.85;;;101.15;;
1140;SDS011;559;48.628;8.924;2023-04-25T10:50:05;117.30;;;111.22;;
1140;SDS011;559;48.628;8.924;2023-04-25T10:52:33;113.35;;;107.20;;
1140;SDS011;559;48.628;8.924;2023-04-25T10:55:04;116.13;;;109.93;;
1140;SDS011;559;48.628;8.924;2023-04-25T10:57:31;118.10;;;111.80;;
1140;SDS011;559;48.628;8.924;2023-04-25T11:00:04;115.32;;;109.03;;
1140;SDS011;559;48.628;8.924;2023-04-25T11:02:36;118.82;;;112.53;;
1140;SDS011;559;48.628;8.924;2023-04-25T11:05:03;115.05;;;108.78;;
1140;SDS011;559;48.628;8.924;2023-04-25T11:07:34;102.50;;;96.82;;
1140;SDS011;559;48.628;8.924;2023-04-25T11:10:04;106.22;;;100.43;;
1140;SDS011;559;48.628;8.924;2023-04-25T11:12:32;109.57;;;103.70;;
1140;SDS011;559;48.628;8.924;2023-04-25T11:14:59;110.63;;;104.63;;
1140;SDS011;559;48.628;8.924;2023-04-25T11:17:26;102.85;;;97.25;;
1140;SDS011;559;48.628;8.924;2023-04-25T11:19:54;114.95;;;108.72;;
1140;SDS011;559;48.628;8.924;2023-04-25T11:22:21;111.05;;;105.05;;
1140;SDS011;559;48.628;8.924;2023-04-25T11:24:49;117.68;;;111.22;;
1140;SDS011;559;48.628;8.924;2023-04-25T11:27:16;114.13;;;107.93;;
1140;SDS011;559;48.628;8.924;2023-04-25T11:29:43;117.75;;;111.50;;
1140;SDS011;559;48.628;8.924;2023-04-25T11:32:09;116.97;;;110.88;;
1140;SDS011;559;48.628;8.924;2023-04-25T11:34:36;110.45;;;104.45;;
1140;SDS011;559;48.628;8.924;2023-04-25T11:37:02;120.00;;;113.68;;
1140;SDS011;559;48.628;8.924;2023-04-25T11:39:31;118.00;;;111.68;;
1140;SDS011;559;48.628;8.924;2023-04-25T11:41:59;121.38;;;114.88;;
1140;SDS011;559;48.628;8.924;2023-04-25T11:44:26;123.60;;;117.00;;
1140;SDS011;559;48.628;8.924;2023-04-25T11:46:52;135.00;;;128.02;;
1140;SDS011;559;48.628;8.924;2023-04-25T11:49:19;145.82;;;138.43;;
1140;SDS011;559;48.628;8.924;2023-04-25T11:51:47;161.40;;;153.43;;
1140;SDS011;559;48.628;8.924;2023-04-25T11:54:14;183.25;;;174.10;;
1140;SDS011;559;48.628;8.924;2023-04-25T11:56:41;183.13;;;173.73;;
1140;SDS011;559;48.628;8.924;2023-04-25T11:59:09;185.25;;;175.55;;
1140;SDS011;559;48.628;8.924;2023-04-25T12:01:36;170.38;;;161.38;;
1140;SDS011;559;48.628;8.924;2023-04-25T12:04:10;178.38;;;169.02;;
1140;SDS011;559;48.628;8.924;2023-04-25T12:06:37;164.95;;;155.95;;
1140;SDS011;559;48.628;8.924;2023-04-25T12:09:06;169.23;;;160.23;;
1140;SDS011;559;48.628;8.924;2023-04-25T12:11:40;163.85;;;155.05;;
1140;SDS011;559;48.628;8.924;2023-04-25T12:14:07;169.32;;;160.32;;
1140;SDS011;559;48.628;8.924;2023-04-25T12:16:41;149.82;;;141.40;;
1140;SDS011;559;48.628;8.924;2023-04-25T12:19:08;153.57;;;145.27;;
1140;SDS011;559;48.628;8.924;2023-04-25T12:21:34;163.32;;;154.73;;
1140;SDS011;559;48.628;8.924;2023-04-25T12:24:12;166.20;;;157.40;;
1140;SDS011;559;48.628;8.924;2023-04-25T12:26:48;158.10;;;149.70;;
1140;SDS011;559;48.628;8.924;2023-04-25T12:29:16;165.02;;;156.30;;
1140;SDS011;559;48.628;8.924;2023-04-25T12:31:44;154.65;;;146.38;;
1140;SDS011;559;48.628;8.924;2023-04-25T13:33:20;83.05;;;78.95;;
1140;SDS011;559;48.628;8.924;2023-04-25T13:35:47;76.18;;;72.65;;
1140;SDS011;559;48.628;8.924;2023-04-25T13:41:26;73.18;;;69.68;;
1140;SDS011;559;48.628;8.924;2023-04-25T13:43:52;65.60;;;62.80;;
1140;SDS011;559;48.628;8.924;2023-04-25T13:46:19;69.05;;;66.05;;
1140;SDS011;559;48.628;8.924;2023-04-25T13:48:47;69.20;;;66.20;;
1140;SDS011;559;48.628;8.924;2023-04-25T13:51:15;71.60;;;68.05;;
1140;SDS011;559;48.628;8.924;2023-04-25T13:53:42;62.95;;;60.45;;
1140;SDS011;559;48.628;8.924;2023-04-25T13:56:09;69.97;;;67.07;;
1140;SDS011;559;48.628;8.924;2023-04-25T13:58:36;67.80;;;64.78;;
1140;SDS011;559;48.628;8.924;2023-04-25T14:01:03;73.63;;;70.28;;
1140;SDS011;559;48.628;8.924;2023-04-25T14:03:30;77.35;;;73.70;;
1140;SDS011;559;48.628;8.924;2023-04-25T14:05:58;72.30;;;68.90;;
1140;SDS011;559;48.628;8.924;2023-04-25T14:08:24;89.25;;;85.10;;
1140;SDS011;559;48.628;8.924;2023-04-25T14:10:51;89.80;;;85.30;;
1140;SDS011;559;48.628;8.924;2023-04-25T14:13:17;93.28;;;88.47;;
1140;SDS011;559;48.628;8.924;2023-04-25T14:15:44;101.13;;;95.72;;
1140;SDS011;559;48.628;8.924;2023-04-25T14:18:10;95.80;;;90.90;;
1140;SDS011;559;48.628;8.924;2023-04-25T14:20:37;95.07;;;90.13;;
1140;SDS011;559;48.628;8.924;2023-04-25T14:23:05;81.03;;;77.13;;
1140;SDS011;559;48.628;8.924;2023-04-25T14:25:31;85.25;;;80.95;;
1140;SDS011;559;48.628;8.924;2023-04-25T14:27:58;84.68;;;80.47;;
1140;SDS011;559;48.628;8.924;2023-04-25T14:30:24;86.80;;;82.07;;
1140;SDS011;559;48.628;8.924;2023-04-25T14:32:51;79.03;;;75.40;;
1140;SDS011;559;48.628;8.924;2023-04-25T14:35:17;75.38;;;71.70;;
1140;SDS011;559;48.628;8.924;2023-04-25T14:37:44;73.43;;;70.03;;
1140;SDS011;559;48.628;8.924;2023-04-25T14:40:12;68.55;;;65.55;;
1140;SDS011;559;48.628;8.924;2023-04-25T14:42:40;60.70;;;58.40;;
1140;SDS011;559;48.628;8.924;2023-04-25T14:45:07;68.85;;;66.05;;
1140;SDS011;559;48.628;8.924;2023-04-25T14:47:34;71.57;;;68.38;;
1140;SDS011;559;48.628;8.924;2023-04-25T14:50:02;72.82;;;69.85;;
1140;SDS011;559;48.628;8.924;2023-04-25T14:52:29;72.72;;;69.63;;
1140;SDS011;559;48.628;8.924;2023-04-25T14:54:55;56.80;;;54.80;;
1140;SDS011;559;48.628;8.924;2023-04-25T14:57:23;64.47;;;61.92;;
1140;SDS011;559;48.628;8.924;2023-04-25T14:59:50;62.63;;;60.13;;
1140;SDS011;559;48.628;8.924;2023-04-25T15:02:16;50.33;;;48.72;;
1140;SDS011;559;48.628;8.924;2023-04-25T15:04:43;53.63;;;51.88;;
1140;SDS011;559;48.628;8.924;2023-04-25T15:07:10;53.38;;;51.70;;
1140;SDS011;559;48.628;8.924;2023-04-25T15:09:36;39.47;;;38.28;;
1140;SDS011;559;48.628;8.924;2023-04-25T15:12:03;51.00;;;49.40;;
1140;SDS011;559;48.628;8.924;2023-04-25T15:14:31;50.08;;;48.63;;
1140;SDS011;559;48.628;8.924;2023-04-25T15:16:58;39.78;;;38.67;;
1140;SDS011;559;48.628;8.924;2023-04-25T15:19:25;41.45;;;40.25;;
1140;SDS011;559;48.628;8.924;2023-04-25T15:21:51;31.13;;;30.33;;
1140;SDS011;559;48.628;8.924;2023-04-25T15:24:18;26.98;;;25.88;;
1140;SDS011;559;48.628;8.924;2023-04-25T15:26:45;19.75;;;19.23;;
1140;SDS011;559;48.628;8.924;2023-04-25T15:29:11;26.00;;;25.38;;
1140;SDS011;559;48.628;8.924;2023-04-25T15:31:39;16.95;;;16.55;;
1140;SDS011;559;48.628;8.924;2023-04-25T15:34:05;29.73;;;29.02;;
1140;SDS011;559;48.628;8.924;2023-04-25T15:36:32;33.78;;;32.78;;
1140;SDS011;559;48.628;8.924;2023-04-25T15:38:58;29.50;;;28.70;;
1140;SDS011;559;48.628;8.924;2023-04-25T15:41:28;26.33;;;25.63;;